Argonne, South Dakota
Current Conditions -  °F | °C
As of 8:15 AM on Friday 31 Oct 2014 (Local Time) from KMDS Reporting Station
Clear Clear  
Wind Chill: 14°   Ceiling: Unl
Heat Index: 14°   Visibility: 10mi
Dew Point: 14°   Wind: 3mph
Humidity: 100%   Direction: 10°N
Pressure: 30.55"   Gusts: NA
Location:  44.0529°N, 97.5161°W
Report Text: KMDS 311315Z AUTO 01003KT 10SM CLR M10/M10 A3055 RMK AO2
Loading
Personal Weather Stations






























Interactive Weather Map
Tropical Storm Tracking
New forecast layout! Learn more

10-Day Weather Forecast

Advertisements
Track Severe Weather on mobile